MiSS Molly — WCZ7602 — position and weather

sailwx.info

Track history (hours):
 
Tides and Currents Weather Stations Pressure Air Temp Water Temp Dewpoint Dewpoint Depression Visibility Wind Speed Wind Dir Waves Ship Positions

MiSS Molly

Owner: LONGLEY, WALTER A, TOPSHAM, ME. More information available from US FCC via Universal Licensing System and Coast Guard Vessel Documentation Center.

Last reported at 2017-Nov-19 13:19 UTC. Time now 2017-Nov-20 03:58 UTC.
Position N 45°19' W 083°22'.

Length 194 m; draft 7.1 m.

Type: Cargo ship. MMSI: 366938760.

Date/timePositionNaut miles runAvg speedWind from/ knotsBaromVisibWave heightAir tempDewpointWater temp
2017-Nov-19 13:19N 45°19' W 083°22'512.4
2017-Nov-19 12:56N 45°23' W 083°27'512.4
2017-Nov-19 12:31N 45°27' W 083°32'612.4
2017-Nov-19 12:00N 45°31' W 083°38'612.4
2017-Nov-19 11:30N 45°35' W 083°45'612.5
2017-Nov-19 11:00N 45°40' W 083°51'1 0.0
2017-Nov-18 20:41N 45°40' W 083°50'412.1
2017-Nov-18 20:21N 45°37' W 083°46'412.3
2017-Nov-18 20:00N 45°34' W 083°42'612.3
2017-Nov-18 19:30N 45°30' W 083°35'612.3
2017-Nov-18 19:00N 45°26' W 083°29'10 0.2
2017-Nov-17 04:14N 45°22' W 083°16'312.1
2017-Nov-17 04:00N 45°24' W 083°20'612.1
2017-Nov-17 03:30N 45°28' W 083°26'612.2
2017-Nov-17 03:00N 45°32' W 083°33'612.2
2017-Nov-17 02:30N 45°36' W 083°40'612.2
2017-Nov-17 02:00N 45°40' W 083°46'612.1
2017-Nov-17 01:30N 45°44' W 083°53'20 1.4
2017-Nov-16 10:47N 45°55' W 084°17'3 9.0
2017-Nov-16 10:29N 45°54' W 084°20'4 9.2
2017-Nov-16 10:00N 45°53' W 084°27'510.3
2017-Nov-16 09:30N 45°51' W 084°34'611.6
2017-Nov-16 09:00N 45°49' W 084°41'612.4
2017-Nov-16 08:30N 45°50' W 084°50'713.1
2017-Nov-16 08:00N 45°51' W 084°60'612.8
2017-Nov-16 07:30N 45°52' W 085°09'612.8
2017-Nov-16 07:00N 45°53' W 085°18'612.8
2017-Nov-16 06:30N 45°54' W 085°27'612.7
2017-Nov-16 06:00N 45°53' W 085°36'612.6
2017-Nov-16 05:30N 45°53' W 085°45'612.5
2017-Nov-16 05:00N 45°53' W 085°54'  
2017-Nov-12 19:50N 45°42' W 083°40'412.5
2017-Nov-12 19:30N 45°39' W 083°36'812.7
2017-Nov-12 18:55N 45°33' W 083°30'612.5
2017-Nov-12 18:24N 45°28' W 083°24'  
2017-Nov-09 16:02N 45°19' W 083°22'112.5
2017-Nov-09 15:56N 45°20' W 083°23'512.4
2017-Nov-09 15:30N 45°24' W 083°29'612.1
2017-Nov-09 15:00N 45°26' W 083°37'5 9.0
2017-Nov-09 14:30N 45°31' W 083°35'5 8.8
2017-Nov-09 13:59N 45°35' W 083°33'4 8.9
2017-Nov-09 13:29N 45°39' W 083°31'  
Track history (hours):
 
Tides and Currents Weather Stations Pressure Air Temp Water Temp Dewpoint Dewpoint Depression Visibility Wind Speed Wind Dir Waves Ship Positions

MiSS Molly

Owner: LONGLEY, WALTER A, TOPSHAM, ME. More information available from US FCC via Universal Licensing System and Coast Guard Vessel Documentation Center.

Last reported at 2017-Nov-19 13:19 UTC. Time now 2017-Nov-20 03:58 UTC.
Position N 45°19' W 083°22'.

Length 194 m; draft 7.1 m.

Type: Cargo ship. MMSI: 366938760.

Date/timePositionNaut miles runAvg speedWind from/ knotsBaromVisibWave heightAir tempDewpointWater temp
2017-Nov-19 13:19N 45°19' W 083°22'512.4
2017-Nov-19 12:56N 45°23' W 083°27'512.4
2017-Nov-19 12:31N 45°27' W 083°32'612.4
2017-Nov-19 12:00N 45°31' W 083°38'612.4
2017-Nov-19 11:30N 45°35' W 083°45'612.5
2017-Nov-19 11:00N 45°40' W 083°51'1 0.0
2017-Nov-18 20:41N 45°40' W 083°50'412.1
2017-Nov-18 20:21N 45°37' W 083°46'412.3
2017-Nov-18 20:00N 45°34' W 083°42'612.3
2017-Nov-18 19:30N 45°30' W 083°35'612.3
2017-Nov-18 19:00N 45°26' W 083°29'10 0.2
2017-Nov-17 04:14N 45°22' W 083°16'312.1
2017-Nov-17 04:00N 45°24' W 083°20'612.1
2017-Nov-17 03:30N 45°28' W 083°26'612.2
2017-Nov-17 03:00N 45°32' W 083°33'612.2
2017-Nov-17 02:30N 45°36' W 083°40'612.2
2017-Nov-17 02:00N 45°40' W 083°46'612.1
2017-Nov-17 01:30N 45°44' W 083°53'20 1.4
2017-Nov-16 10:47N 45°55' W 084°17'3 9.0
2017-Nov-16 10:29N 45°54' W 084°20'4 9.2
2017-Nov-16 10:00N 45°53' W 084°27'510.3
2017-Nov-16 09:30N 45°51' W 084°34'611.6
2017-Nov-16 09:00N 45°49' W 084°41'612.4
2017-Nov-16 08:30N 45°50' W 084°50'713.1
2017-Nov-16 08:00N 45°51' W 084°60'612.8
2017-Nov-16 07:30N 45°52' W 085°09'612.8
2017-Nov-16 07:00N 45°53' W 085°18'612.8
2017-Nov-16 06:30N 45°54' W 085°27'612.7
2017-Nov-16 06:00N 45°53' W 085°36'612.6
2017-Nov-16 05:30N 45°53' W 085°45'612.5
2017-Nov-16 05:00N 45°53' W 085°54'  
2017-Nov-12 19:50N 45°42' W 083°40'412.5
2017-Nov-12 19:30N 45°39' W 083°36'812.7
2017-Nov-12 18:55N 45°33' W 083°30'612.5
2017-Nov-12 18:24N 45°28' W 083°24'  
2017-Nov-09 16:02N 45°19' W 083°22'112.5
2017-Nov-09 15:56N 45°20' W 083°23'512.4
2017-Nov-09 15:30N 45°24' W 083°29'612.1
2017-Nov-09 15:00N 45°26' W 083°37'5 9.0
2017-Nov-09 14:30N 45°31' W 083°35'5 8.8
2017-Nov-09 13:59N 45°35' W 083°33'4 8.9
2017-Nov-09 13:29N 45°39' W 083°31'  

Dump ship's entire track history